Time;durP1;ratioP1;P1;durP2;ratioP2;P2;SDS_P1;SDS_P2;PMS_P1;PMS_P2;Temp;Humidity;BMP_temperature;BMP_pressure;BME280_temperature;BME280_humidity;BME280_pressure;Samples;Min_cycle;Max_cycle;Signal;HPM_P1;HPM_P2
2023/04/17 00:00:28;;;;;;;7.95;7.35;;;;;;;;;;5015490;28;20033;-57
2023/04/17 00:02:54;;;;;;;8.80;8.00;;;;;;;;;;5015249;28;20026;-57
2023/04/17 00:05:22;;;;;;;9.15;7.68;;;;;;;;;;5015314;28;20503;-57
2023/04/17 00:07:48;;;;;;;9.13;8.05;;;;;;;;;;4997647;28;20026;-57
2023/04/17 00:10:13;;;;;;;9.30;8.40;;;;;;;;;;5015309;28;20460;-56
2023/04/17 00:12:38;;;;;;;9.18;8.38;;;;;;;;;;5015694;28;20030;-56
2023/04/17 00:15:04;;;;;;;9.35;8.43;;;;;;;;;;5015192;28;20382;-56
2023/04/17 00:17:29;;;;;;;9.70;8.43;;;;;;;;;;5014690;28;20088;-57
2023/04/17 00:19:56;;;;;;;7.97;7.28;;;;;;;;;;5015353;28;20033;-57
2023/04/17 00:22:21;;;;;;;8.77;7.97;;;;;;;;;;5015200;28;20036;-57
2023/04/17 00:24:47;;;;;;;9.20;7.93;;;;;;;;;;5015143;28;20034;-57
2023/04/17 00:27:12;;;;;;;8.52;7.60;;;;;;;;;;5014617;28;20064;-57
2023/04/17 00:29:37;;;;;;;8.70;7.90;;;;;;;;;;5014495;28;20034;-57
2023/04/17 00:32:03;;;;;;;8.65;7.75;;;;;;;;;;5014261;28;20045;-56
2023/04/17 00:34:28;;;;;;;9.27;8.40;;;;;;;;;;4996728;28;20034;-56
2023/04/17 00:36:54;;;;;;;8.75;7.70;;;;;;;;;;5007951;28;20112;-62
2023/04/17 00:39:19;;;;;;;10.20;7.90;;;;;;;;;;5016144;28;20132;-62
2023/04/17 00:41:45;;;;;;;9.18;7.70;;;;;;;;;;5016006;28;20033;-63
2023/04/17 00:44:10;;;;;;;8.77;7.88;;;;;;;;;;5033605;28;20030;-62
2023/04/17 00:46:36;;;;;;;8.35;7.55;;;;;;;;;;5015664;28;20025;-63
2023/04/17 00:49:01;;;;;;;9.15;7.88;;;;;;;;;;5033729;28;20037;-62
2023/04/17 00:51:28;;;;;;;8.45;7.65;;;;;;;;;;5033829;28;20055;-62
2023/04/17 00:53:54;;;;;;;9.23;7.90;;;;;;;;;;5033227;28;20411;-62
2023/04/17 00:56:21;;;;;;;9.20;8.27;;;;;;;;;;5016035;28;20036;-62
2023/04/17 00:58:46;;;;;;;9.20;8.30;;;;;;;;;;5033218;28;20365;-62
2023/04/17 01:01:12;;;;;;;9.82;8.55;;;;;;;;;;5015783;28;20037;-63
2023/04/17 01:03:37;;;;;;;8.23;7.53;;;;;;;;;;5033307;28;20112;-62
2023/04/17 01:06:03;;;;;;;8.88;7.90;;;;;;;;;;5033120;28;20026;-62
2023/04/17 01:08:32;;;;;;;7.93;7.20;;;;;;;;;;5015784;28;20034;-58
2023/04/17 01:10:57;;;;;;;10.68;7.90;;;;;;;;;;5033226;28;20026;-57
2023/04/17 01:13:22;;;;;;;8.85;8.05;;;;;;;;;;5031902;28;20135;-56
2023/04/17 01:15:50;;;;;;;9.50;8.30;;;;;;;;;;5031865;28;20553;-56
2023/04/17 01:18:15;;;;;;;9.90;8.80;;;;;;;;;;5015850;28;20038;-62
2023/04/17 01:20:41;;;;;;;9.02;8.13;;;;;;;;;;5033204;28;20036;-61
2023/04/17 01:23:06;;;;;;;9.90;8.20;;;;;;;;;;5015437;28;20057;-62
2023/04/17 01:25:32;;;;;;;10.80;8.65;;;;;;;;;;5016077;28;20072;-56
2023/04/17 01:27:57;;;;;;;9.10;8.20;;;;;;;;;;5004717;28;20538;-56
2023/04/17 01:30:23;;;;;;;10.65;8.35;;;;;;;;;;4995176;28;20483;-56
2023/04/17 01:33:08;;;;;;;10.90;8.82;;;;;;;;;;5013324;28;20085;-62
2023/04/17 01:35:34;;;;;;;9.85;8.93;;;;;;;;;;4995900;28;20033;-62
2023/04/17 01:38:00;;;;;;;9.70;8.70;;;;;;;;;;4995326;28;20030;-62
2023/04/17 01:40:26;;;;;;;9.48;8.52;;;;;;;;;;4995829;28;20113;-62
2023/04/17 01:42:51;;;;;;;9.27;8.38;;;;;;;;;;5013524;28;20029;-62
2023/04/17 01:45:16;;;;;;;9.05;8.07;;;;;;;;;;4995535;28;20387;-62
2023/04/17 01:47:43;;;;;;;8.63;7.78;;;;;;;;;;4995868;28;20172;-62
2023/04/17 01:50:09;;;;;;;9.27;8.32;;;;;;;;;;4995297;28;20038;-62
2023/04/17 01:52:35;;;;;;;8.48;7.60;;;;;;;;;;5012933;28;20044;-62
2023/04/17 01:55:01;;;;;;;8.70;7.72;;;;;;;;;;4995628;28;20088;-62
2023/04/17 01:57:27;;;;;;;8.50;7.70;;;;;;;;;;4995245;28;20025;-62
2023/04/17 01:59:52;;;;;;;9.02;8.15;;;;;;;;;;4995318;28;20033;-62
2023/04/17 02:02:17;;;;;;;9.73;8.52;;;;;;;;;;4995290;28;20026;-62
2023/04/17 02:04:43;;;;;;;10.55;9.45;;;;;;;;;;5026058;28;20037;-62
2023/04/17 02:07:08;;;;;;;10.43;9.38;;;;;;;;;;5015005;28;20021;-62
2023/04/17 02:09:33;;;;;;;11.02;9.93;;;;;;;;;;5032730;28;20486;-62
2023/04/17 02:11:59;;;;;;;11.35;10.20;;;;;;;;;;5014965;28;20045;-57
2023/04/17 02:14:24;;;;;;;10.50;9.40;;;;;;;;;;5032587;28;20065;-57
2023/04/17 02:16:50;;;;;;;10.20;8.90;;;;;;;;;;5032303;28;20037;-57
2023/04/17 02:19:15;;;;;;;9.18;8.27;;;;;;;;;;5032109;28;20032;-62
2023/04/17 02:21:41;;;;;;;8.68;7.88;;;;;;;;;;5032133;28;20025;-62
2023/04/17 02:24:06;;;;;;;9.50;8.50;;;;;;;;;;5015450;28;20484;-62
2023/04/17 02:26:31;;;;;;;10.93;9.80;;;;;;;;;;5031811;28;20053;-62
2023/04/17 02:28:56;;;;;;;10.20;9.20;;;;;;;;;;5032814;28;20025;-62
2023/04/17 02:31:22;;;;;;;11.27;9.35;;;;;;;;;;5015009;28;20499;-62
2023/04/17 02:33:48;;;;;;;9.98;8.85;;;;;;;;;;5015084;28;20033;-62
2023/04/17 02:36:13;;;;;;;10.60;9.50;;;;;;;;;;5032736;28;20036;-62
2023/04/17 02:38:41;;;;;;;10.40;9.43;;;;;;;;;;5015097;28;20033;-62
2023/04/17 02:41:06;;;;;;;12.15;9.98;;;;;;;;;;5000357;28;20030;-62
2023/04/17 02:43:32;;;;;;;10.18;9.18;;;;;;;;;;4999562;28;20025;-62
2023/04/17 02:45:58;;;;;;;10.80;9.63;;;;;;;;;;4999437;28;20396;-62
2023/04/17 02:48:25;;;;;;;11.63;10.02;;;;;;;;;;4999326;28;20112;-62
2023/04/17 02:50:51;;;;;;;11.73;10.60;;;;;;;;;;4999258;28;20034;-62
2023/04/17 02:53:18;;;;;;;11.68;9.77;;;;;;;;;;5000699;28;20084;-62
2023/04/17 02:55:43;;;;;;;12.18;10.73;;;;;;;;;;5018826;28;20049;-62
2023/04/17 02:58:09;;;;;;;14.18;11.73;;;;;;;;;;5018402;28;20137;-62
2023/04/17 03:00:34;;;;;;;13.55;11.00;;;;;;;;;;5016807;28;20084;-62
2023/04/17 03:03:01;;;;;;;13.93;10.52;;;;;;;;;;5025682;28;20028;-63
2023/04/17 03:05:29;;;;;;;11.63;10.43;;;;;;;;;;5016955;28;20035;-62
2023/04/17 03:07:57;;;;;;;11.10;9.98;;;;;;;;;;5015669;28;20053;-56
2023/04/17 03:10:22;;;;;;;11.73;9.80;;;;;;;;;;5016627;28;20120;-56
2023/04/17 03:12:48;;;;;;;11.75;10.50;;;;;;;;;;5014268;28;20531;-57
2023/04/17 03:15:13;;;;;;;12.57;11.18;;;;;;;;;;4998794;28;20037;-57
2023/04/17 03:17:44;;;;;;;12.23;11.02;;;;;;;;;;5015931;28;20108;-57
2023/04/17 03:20:10;;;;;;;13.57;10.88;;;;;;;;;;5016433;28;20475;-57
2023/04/17 03:22:35;;;;;;;11.77;10.57;;;;;;;;;;5015158;28;20073;-57
2023/04/17 03:25:02;;;;;;;11.77;10.45;;;;;;;;;;5015109;28;20043;-57
2023/04/17 03:27:35;;;;;;;14.18;12.23;;;;;;;;;;5015573;28;20022;-57
2023/04/17 03:30:00;;;;;;;13.13;11.82;;;;;;;;;;5015881;28;20045;-57
2023/04/17 03:32:26;;;;;;;14.00;12.57;;;;;;;;;;5013928;28;20111;-63
2023/04/17 03:34:51;;;;;;;14.63;13.13;;;;;;;;;;5013722;28;20047;-63
2023/04/17 03:37:16;;;;;;;14.93;13.43;;;;;;;;;;5015342;28;20096;-57
2023/04/17 03:39:42;;;;;;;14.90;13.00;;;;;;;;;;5016245;28;20038;-57
2023/04/17 03:42:10;;;;;;;13.95;12.15;;;;;;;;;;5014498;28;20065;-62
2023/04/17 03:44:37;;;;;;;15.45;12.73;;;;;;;;;;4999191;28;20037;-62
2023/04/17 03:47:02;;;;;;;16.77;13.30;;;;;;;;;;4999174;28;20033;-57
2023/04/17 03:49:27;;;;;;;18.48;13.88;;;;;;;;;;5014245;28;20064;-56
2023/04/17 03:51:53;;;;;;;16.38;12.82;;;;;;;;;;5024760;28;20470;-57
2023/04/17 03:54:21;;;;;;;15.68;13.05;;;;;;;;;;5014171;28;20025;-57
2023/04/17 03:56:48;;;;;;;14.98;12.90;;;;;;;;;;5013618;28;20030;-57
2023/04/17 03:59:14;;;;;;;16.90;13.63;;;;;;;;;;5014326;28;20026;-57
2023/04/17 04:01:41;;;;;;;17.45;14.75;;;;;;;;;;5014296;28;20028;-57
2023/04/17 04:04:15;;;;;;;17.80;14.18;;;;;;;;;;5024725;28;20371;-57
2023/04/17 04:06:42;;;;;;;15.88;13.55;;;;;;;;;;5015099;28;20899;-64
2023/04/17 04:09:12;;;;;;;17.90;13.38;;;;;;;;;;5013332;28;20025;-62
2023/04/17 04:11:37;;;;;;;14.50;12.07;;;;;;;;;;5018390;28;20032;-61
2023/04/17 04:14:03;;;;;;;13.95;10.68;;;;;;;;;;5009148;28;20034;-62
2023/04/17 04:16:28;;;;;;;13.57;11.52;;;;;;;;;;5002520;28;20025;-62
2023/04/17 04:19:02;;;;;;;13.40;11.35;;;;;;;;;;5016817;28;20033;-62
2023/04/17 04:21:29;;;;;;;13.70;11.70;;;;;;;;;;5017558;28;20064;-62
2023/04/17 04:23:55;;;;;;;17.27;13.35;;;;;;;;;;5017066;28;20033;-62
2023/04/17 04:26:20;;;;;;;18.90;13.82;;;;;;;;;;5016766;28;20028;-62
2023/04/17 04:28:50;;;;;;;16.70;13.80;;;;;;;;;;5016081;28;20053;-62
2023/04/17 04:31:25;;;;;;;20.58;15.30;;;;;;;;;;5016285;28;20426;-62
2023/04/17 04:33:54;;;;;;;19.00;14.18;;;;;;;;;;5016945;28;20021;-62
2023/04/17 04:36:21;;;;;;;16.27;13.65;;;;;;;;;;5015814;28;20108;-61
2023/04/17 04:38:58;;;;;;;16.08;13.45;;;;;;;;;;5017032;28;20041;-62
2023/04/17 04:41:28;;;;;;;;;;;;;;;;;;5012061;28;20025;-62
2023/04/17 04:43:54;;;;;;;15.18;11.85;;;;;;;;;;5029469;28;19910;-62
2023/04/17 04:46:19;;;;;;;16.98;11.82;;;;;;;;;;4997242;28;20109;-62
2023/04/17 04:48:47;;;;;;;12.65;11.20;;;;;;;;;;4997556;28;20022;-62
2023/04/17 04:51:12;;;;;;;12.63;11.15;;;;;;;;;;5014380;28;20160;-62
2023/04/17 04:53:38;;;;;;;13.38;11.52;;;;;;;;;;5001812;28;20091;-62
2023/04/17 04:56:04;;;;;;;18.83;12.55;;;;;;;;;;5016649;28;20449;-62
2023/04/17 04:58:31;;;;;;;16.60;13.90;;;;;;;;;;5016475;28;20116;-61
2023/04/17 05:00:59;;;;;;;29.50;26.50;;;;;;;;;;5017237;28;20033;-62
2023/04/17 05:03:31;;;;;;;15.30;12.88;;;;;;;;;;5016764;28;20026;-62
2023/04/17 05:05:57;;;;;;;40.20;28.58;;;;;;;;;;5016109;28;20026;-61
2023/04/17 05:08:27;;;;;;;61.60;43.50;;;;;;;;;;5034559;28;20017;-62
2023/04/17 05:11:03;;;;;;;88.65;62.20;;;;;;;;;;5034581;28;20026;-61
2023/04/17 05:13:30;;;;;;;15.15;13.18;;;;;;;;;;5033454;28;20172;-54
2023/04/17 05:15:55;;;;;;;17.70;15.77;;;;;;;;;;5015058;28;20402;-54
2023/04/17 05:18:26;;;;;;;19.60;15.95;;;;;;;;;;5015591;28;20064;-55
2023/04/17 05:20:51;;;;;;;19.60;16.08;;;;;;;;;;5016439;28;20076;-54
2023/04/17 05:23:20;;;;;;;16.70;14.95;;;;;;;;;;5016598;28;20136;-54
2023/04/17 05:25:47;;;;;;;18.42;14.15;;;;;;;;;;5015936;28;20032;-54
2023/04/17 05:28:13;;;;;;;16.25;14.10;;;;;;;;;;4999759;28;20021;-55
2023/04/17 05:30:39;;;;;;;19.83;15.25;;;;;;;;;;5013890;28;20404;-62
2023/04/17 05:33:12;;;;;;;18.90;15.90;;;;;;;;;;5016252;28;20033;-62
2023/04/17 05:35:45;;;;;;;18.00;14.95;;;;;;;;;;5016320;28;20060;-62
2023/04/17 05:38:11;;;;;;;16.67;13.50;;;;;;;;;;5016126;28;20034;-62
2023/04/17 05:40:37;;;;;;;21.60;16.35;;;;;;;;;;5016331;28;20451;-62
2023/04/17 05:43:07;;;;;;;17.38;15.48;;;;;;;;;;5015048;28;20053;-62
2023/04/17 05:45:34;;;;;;;17.98;14.27;;;;;;;;;;5015235;28;20457;-62
2023/04/17 05:47:59;;;;;;;20.55;15.27;;;;;;;;;;5015019;28;20025;-63
2023/04/17 05:50:25;;;;;;;23.13;18.48;;;;;;;;;;5015094;28;20164;-62
2023/04/17 05:52:50;;;;;;;14.85;13.02;;;;;;;;;;5031766;28;20044;-61
2023/04/17 05:55:18;;;;;;;13.93;12.18;;;;;;;;;;5013999;28;20426;-62
2023/04/17 05:57:44;;;;;;;13.90;12.43;;;;;;;;;;5013700;28;20485;-63
2023/04/17 06:00:12;;;;;;;12.25;10.95;;;;;;;;;;5031937;28;20117;-63
2023/04/17 06:02:41;;;;;;;11.55;10.07;;;;;;;;;;5032296;28;20510;-62
2023/04/17 06:05:09;;;;;;;15.98;11.80;;;;;;;;;;5014405;28;20467;-62
2023/04/17 06:07:37;;;;;;;11.95;10.13;;;;;;;;;;5014667;28;20025;-62
2023/04/17 06:10:04;;;;;;;10.77;9.55;;;;;;;;;;5014732;28;20038;-63
2023/04/17 06:12:30;;;;;;;12.00;9.90;;;;;;;;;;5015196;28;20036;-63
2023/04/17 06:14:56;;;;;;;12.32;9.82;;;;;;;;;;5015750;28;20033;-63
2023/04/17 06:17:22;;;;;;;12.88;10.90;;;;;;;;;;5019204;28;20033;-62
2023/04/17 06:19:48;;;;;;;14.95;13.05;;;;;;;;;;5019691;28;20029;-62
2023/04/17 06:22:13;;;;;;;28.75;25.60;;;;;;;;;;5019671;28;20029;-60
2023/04/17 06:24:38;;;;;;;21.30;13.95;;;;;;;;;;5038153;28;20511;-62
2023/04/17 06:27:03;;;;;;;20.23;13.68;;;;;;;;;;5019574;28;20029;-62
2023/04/17 06:29:29;;;;;;;17.40;13.35;;;;;;;;;;5020336;28;20033;-63
2023/04/17 06:31:55;;;;;;;17.52;13.15;;;;;;;;;;5019452;28;20046;-63
2023/04/17 06:34:21;;;;;;;53.65;46.60;;;;;;;;;;5019440;28;20029;-63
2023/04/17 06:36:46;;;;;;;23.13;16.77;;;;;;;;;;5003032;28;20091;-63
2023/04/17 06:39:13;;;;;;;20.15;14.20;;;;;;;;;;5019300;28;20053;-62
2023/04/17 06:41:39;;;;;;;73.60;50.22;;;;;;;;;;5037570;28;20060;-63
2023/04/17 06:44:04;;;;;;;79.97;56.42;;;;;;;;;;5019538;28;20451;-63
2023/04/17 06:46:44;;;;;;;78.27;61.63;;;;;;;;;;5019184;28;20529;-62
2023/04/17 06:49:09;;;;;;;31.73;26.60;;;;;;;;;;5036895;28;20120;-62
2023/04/17 06:51:34;;;;;;;20.33;16.20;;;;;;;;;;5036879;28;20033;-62
2023/04/17 06:54:00;;;;;;;22.02;16.98;;;;;;;;;;5036857;28;20463;-62
2023/04/17 06:56:25;;;;;;;29.42;22.15;;;;;;;;;;5036998;28;20072;-63
2023/04/17 06:58:52;;;;;;;22.30;15.30;;;;;;;;;;5037253;28;20105;-62
2023/04/17 07:01:17;;;;;;;23.40;18.77;;;;;;;;;;5036706;28;20463;-63
2023/04/17 07:03:42;;;;;;;55.55;37.17;;;;;;;;;;5036708;28;20055;-63
2023/04/17 07:06:08;;;;;;;18.77;14.68;;;;;;;;;;5018948;28;20021;-62
2023/04/17 07:08:33;;;;;;;29.25;18.00;;;;;;;;;;5036803;28;20361;-62
2023/04/17 07:10:58;;;;;;;22.40;17.45;;;;;;;;;;5036831;28;20064;-63
2023/04/17 07:13:24;;;;;;;71.50;45.80;;;;;;;;;;5036394;28;20041;-62
2023/04/17 07:15:52;;;;;;;260.38;166.27;;;;;;;;;;5036470;28;20017;-63
2023/04/17 07:18:17;;;;;;;56.25;41.63;;;;;;;;;;5036681;28;20030;-63
2023/04/17 07:20:43;;;;;;;18.42;16.13;;;;;;;;;;5036565;28;20351;-62
2023/04/17 07:23:08;;;;;;;19.63;16.20;;;;;;;;;;5036772;28;20030;-63
2023/04/17 07:25:33;;;;;;;61.95;47.28;;;;;;;;;;5036302;28;20534;-62
2023/04/17 07:27:59;;;;;;;19.38;17.08;;;;;;;;;;5035285;28;20022;-63
2023/04/17 07:30:24;;;;;;;21.05;17.10;;;;;;;;;;5036290;28;20478;-63
2023/04/17 07:32:49;;;;;;;13.88;12.40;;;;;;;;;;5035950;28;20446;-63
2023/04/17 07:35:15;;;;;;;14.30;11.63;;;;;;;;;;5036107;28;20109;-63
2023/04/17 07:37:40;;;;;;;17.23;12.27;;;;;;;;;;5036045;28;20033;-63
2023/04/17 07:40:07;;;;;;;14.75;12.77;;;;;;;;;;5036237;23;20062;-56
2023/04/17 07:42:33;;;;;;;14.45;10.55;;;;;;;;;;5016415;28;20026;-63
2023/04/17 07:44:58;;;;;;;11.88;10.65;;;;;;;;;;5016103;28;20366;-62
2023/04/17 07:47:23;;;;;;;13.55;11.05;;;;;;;;;;5016072;28;20030;-62
2023/04/17 07:49:49;;;;;;;12.32;11.02;;;;;;;;;;5016028;28;20461;-63
2023/04/17 07:52:16;;;;;;;14.85;12.32;;;;;;;;;;5015977;28;20045;-62
2023/04/17 07:54:42;;;;;;;11.60;10.38;;;;;;;;;;5015942;28;20034;-62
2023/04/17 07:57:07;;;;;;;11.85;10.65;;;;;;;;;;5016177;28;20100;-62
2023/04/17 07:59:35;;;;;;;11.38;10.25;;;;;;;;;;5015801;28;20037;-63
2023/04/17 08:02:00;;;;;;;12.90;11.02;;;;;;;;;;5015820;28;20465;-63
2023/04/17 08:04:25;;;;;;;11.25;10.15;;;;;;;;;;5016018;28;20014;-62
2023/04/17 08:06:51;;;;;;;11.57;10.38;;;;;;;;;;5015688;28;20454;-62
2023/04/17 08:09:16;;;;;;;11.35;10.20;;;;;;;;;;5015929;28;20034;-63
2023/04/17 08:11:44;;;;;;;11.20;10.10;;;;;;;;;;5015636;28;20021;-63
2023/04/17 08:14:10;;;;;;;11.55;10.38;;;;;;;;;;5015574;28;20534;-62
2023/04/17 08:16:36;;;;;;;11.38;9.07;;;;;;;;;;5030751;28;20400;-62
2023/04/17 08:19:01;;;;;;;12.73;10.98;;;;;;;;;;5015406;28;20035;-63
2023/04/17 08:21:27;;;;;;;17.02;13.98;;;;;;;;;;5015653;28;20026;-63
2023/04/17 08:24:15;;;;;;;15.10;12.02;;;;;;;;;;5015657;28;20033;-62
2023/04/17 08:26:41;;;;;;;11.25;8.68;;;;;;;;;;5015239;28;20022;-63
2023/04/17 08:29:07;;;;;;;23.17;17.27;;;;;;;;;;5014135;28;20155;-63
2023/04/17 08:31:35;;;;;;;18.67;14.18;;;;;;;;;;5015509;28;20046;-63
2023/04/17 08:34:01;;;;;;;47.00;28.95;;;;;;;;;;5015497;28;20030;-62
2023/04/17 08:36:27;;;;;;;11.35;9.30;;;;;;;;;;5015167;28;20030;-62
2023/04/17 08:38:52;;;;;;;57.50;37.85;;;;;;;;;;5014508;28;20022;-63
2023/04/17 08:41:24;;;;;;;96.45;52.28;;;;;;;;;;5015021;28;20037;-63
2023/04/17 08:43:49;;;;;;;87.25;54.47;;;;;;;;;;4997396;28;20022;-63
2023/04/17 08:46:21;;;;;;;17.48;13.57;;;;;;;;;;5015461;28;20045;-63
2023/04/17 08:48:46;;;;;;;38.78;27.77;;;;;;;;;;5015426;28;20033;-63
2023/04/17 08:51:12;;;;;;;15.95;12.68;;;;;;;;;;5014869;28;20079;-63
2023/04/17 08:53:37;;;;;;;37.40;22.30;;;;;;;;;;5015173;28;20026;-62
2023/04/17 08:56:04;;;;;;;46.10;31.80;;;;;;;;;;5015309;28;20457;-62
2023/04/17 08:58:32;;;;;;;14.82;12.93;;;;;;;;;;5015061;28;20042;-63
2023/04/17 09:01:06;;;;;;;21.35;15.15;;;;;;;;;;5014666;28;20048;-63
2023/04/17 09:03:38;;;;;;;18.67;13.98;;;;;;;;;;5014673;28;20026;-62
2023/04/17 09:06:03;;;;;;;34.03;27.25;;;;;;;;;;5014863;28;20033;-63
2023/04/17 09:08:29;;;;;;;12.68;10.63;;;;;;;;;;5014613;28;20037;-63
2023/04/17 09:10:54;;;;;;;14.32;12.07;;;;;;;;;;5014807;28;20056;-62
2023/04/17 09:13:23;;;;;;;9.82;8.23;;;;;;;;;;5014547;28;20471;-62
2023/04/17 09:16:05;;;;;;;11.40;10.20;;;;;;;;;;5014503;28;20486;-62
2023/04/17 09:18:31;;;;;;;10.80;9.77;;;;;;;;;;5014990;28;20124;-62
2023/04/17 09:20:58;;;;;;;10.40;9.32;;;;;;;;;;5014616;28;20160;-63
2023/04/17 09:23:24;;;;;;;11.75;10.65;;;;;;;;;;5013150;28;20470;-62
2023/04/17 09:26:04;;;;;;;9.05;8.23;;;;;;;;;;5014599;28;20108;-62
2023/04/17 09:28:34;;;;;;;10.93;9.82;;;;;;;;;;5014592;28;20161;-63
2023/04/17 09:31:02;;;;;;;12.77;11.48;;;;;;;;;;5014269;28;20495;-63
2023/04/17 09:33:27;;;;;;;13.07;11.55;;;;;;;;;;5014226;28;20429;-63
2023/04/17 09:35:52;;;;;;;13.32;11.52;;;;;;;;;;5014160;28;20022;-63
2023/04/17 09:38:34;;;;;;;13.25;11.23;;;;;;;;;;5014141;28;20475;-63
2023/04/17 09:41:00;;;;;;;13.15;11.85;;;;;;;;;;5013914;28;20407;-63
2023/04/17 09:43:39;;;;;;;14.10;12.60;;;;;;;;;;5014323;28;20026;-62
2023/04/17 09:46:04;;;;;;;14.52;12.45;;;;;;;;;;5014054;28;20030;-63
2023/04/17 09:48:29;;;;;;;13.18;11.65;;;;;;;;;;5013981;28;20105;-62
2023/04/17 09:50:55;;;;;;;12.90;11.60;;;;;;;;;;5011991;28;20053;-63
2023/04/17 09:53:21;;;;;;;13.63;12.23;;;;;;;;;;5013952;28;20056;-63
2023/04/17 09:55:48;;;;;;;13.52;11.75;;;;;;;;;;5029199;28;20029;-63
2023/04/17 09:58:13;;;;;;;13.23;11.82;;;;;;;;;;5013871;28;20034;-62
2023/04/17 10:00:40;;;;;;;13.90;12.40;;;;;;;;;;5014047;28;20033;-63
2023/04/17 10:03:05;;;;;;;12.63;11.32;;;;;;;;;;5013892;28;20024;-63
2023/04/17 10:05:31;;;;;;;13.07;11.75;;;;;;;;;;5014353;28;20365;-62
2023/04/17 10:07:56;;;;;;;12.38;11.18;;;;;;;;;;5014112;28;20038;-62
2023/04/17 10:10:21;;;;;;;11.63;10.43;;;;;;;;;;5012908;28;20045;-63
2023/04/17 10:12:47;;;;;;;12.10;10.90;;;;;;;;;;5013778;28;20034;-63
2023/04/17 10:15:13;;;;;;;11.82;10.63;;;;;;;;;;5014008;28;20034;-62
2023/04/17 10:17:38;;;;;;;11.27;10.07;;;;;;;;;;5012476;28;20057;-63
2023/04/17 10:20:16;;;;;;;11.75;10.20;;;;;;;;;;5012384;28;20061;-63
2023/04/17 10:22:42;;;;;;;11.90;10.70;;;;;;;;;;5014239;28;20049;-62
2023/04/17 10:25:11;;;;;;;13.60;12.10;;;;;;;;;;5012504;28;20030;-63
2023/04/17 10:27:37;;;;;;;13.20;11.88;;;;;;;;;;5012390;28;20030;-62
2023/04/17 10:30:04;;;;;;;12.75;11.50;;;;;;;;;;5013919;28;20073;-63
2023/04/17 10:32:30;;;;;;;13.32;11.65;;;;;;;;;;5013877;28;20026;-63
2023/04/17 10:34:56;;;;;;;11.90;10.70;;;;;;;;;;5013846;28;20361;-62
2023/04/17 10:37:43;;;;;;;13.90;11.95;;;;;;;;;;5013812;28;20045;-62
2023/04/17 10:40:09;;;;;;;12.68;11.38;;;;;;;;;;5013316;28;20038;-63
2023/04/17 10:42:35;;;;;;;13.82;11.23;;;;;;;;;;5013766;28;20029;-63
2023/04/17 10:45:04;;;;;;;13.10;11.20;;;;;;;;;;5013432;28;20034;-63
2023/04/17 10:47:31;;;;;;;13.18;11.73;;;;;;;;;;5013460;28;20030;-62
2023/04/17 10:49:57;;;;;;;12.48;11.20;;;;;;;;;;5013429;28;20033;-63
2023/04/17 10:52:32;;;;;;;12.45;11.13;;;;;;;;;;5013433;28;20453;-62
2023/04/17 10:55:04;;;;;;;11.27;10.05;;;;;;;;;;5012146;28;20026;-63
2023/04/17 10:57:48;;;;;;;12.40;11.15;;;;;;;;;;5013880;28;20160;-63
2023/04/17 11:00:14;;;;;;;10.32;9.30;;;;;;;;;;5013488;28;20037;-63
2023/04/17 11:02:40;;;;;;;10.18;9.05;;;;;;;;;;5015704;28;20017;-63
2023/04/17 11:05:06;;;;;;;9.15;8.25;;;;;;;;;;5017177;28;20034;-62
2023/04/17 11:07:31;;;;;;;7.40;6.70;;;;;;;;;;5017095;28;20156;-63
2023/04/17 11:09:56;;;;;;;7.70;6.90;;;;;;;;;;5016843;28;20135;-63
2023/04/17 11:12:22;;;;;;;6.78;6.07;;;;;;;;;;5016774;28;20030;-63
2023/04/17 11:14:47;;;;;;;6.78;6.13;;;;;;;;;;5016742;28;20037;-63
2023/04/17 11:17:12;;;;;;;5.88;5.45;;;;;;;;;;5016656;28;20495;-63
2023/04/17 11:19:38;;;;;;;6.43;5.82;;;;;;;;;;5016855;28;20021;-63
2023/04/17 11:22:03;;;;;;;6.38;5.78;;;;;;;;;;5016853;28;20025;-63
2023/04/17 11:24:29;;;;;;;6.97;6.40;;;;;;;;;;4999276;28;20046;-63
2023/04/17 11:26:55;;;;;;;7.57;6.88;;;;;;;;;;5016487;28;20022;-63
2023/04/17 11:29:21;;;;;;;8.00;7.20;;;;;;;;;;5016446;28;20468;-63
2023/04/17 11:31:47;;;;;;;9.35;8.45;;;;;;;;;;5016400;28;20457;-63
2023/04/17 11:34:13;;;;;;;11.13;9.68;;;;;;;;;;5016638;28;20483;-63
2023/04/17 11:36:38;;;;;;;8.85;8.05;;;;;;;;;;5016304;28;20026;-62
2023/04/17 11:39:04;;;;;;;8.52;7.63;;;;;;;;;;5015983;28;20137;-63
2023/04/17 11:41:38;;;;;;;9.25;8.35;;;;;;;;;;5016781;28;20026;-62
2023/04/17 11:44:07;;;;;;;7.70;7.00;;;;;;;;;;5016431;28;20480;-63
2023/04/17 11:46:33;;;;;;;9.02;7.78;;;;;;;;;;5016085;28;20026;-62
2023/04/17 11:48:58;;;;;;;28.30;15.73;;;;;;;;;;5031358;28;20026;-63
2023/04/17 11:51:25;;;;;;;13.10;10.32;;;;;;;;;;5016272;28;20018;-62
2023/04/17 11:53:51;;;;;;;10.15;8.77;;;;;;;;;;5016254;28;20033;-63
2023/04/17 11:56:17;;;;;;;17.13;13.48;;;;;;;;;;5015913;28;20034;-63
2023/04/17 11:58:46;;;;;;;12.73;9.57;;;;;;;;;;5016132;28;20061;-63
2023/04/17 12:01:12;;;;;;;22.92;15.73;;;;;;;;;;5015751;28;20034;-63
2023/04/17 12:03:37;;;;;;;12.02;10.48;;;;;;;;;;5016063;28;20379;-63
2023/04/17 12:06:03;;;;;;;22.85;17.92;;;;;;;;;;5030780;23;20136;-62
2023/04/17 12:08:29;;;;;;;12.38;9.07;;;;;;;;;;5042711;23;20128;-62
2023/04/17 12:10:58;;;;;;;11.75;10.50;;;;;;;;;;5014816;28;20400;-63
2023/04/17 12:13:24;;;;;;;21.70;16.00;;;;;;;;;;5014939;28;20030;-63
2023/04/17 12:15:49;;;;;;;15.13;12.80;;;;;;;;;;5015540;28;20117;-63
2023/04/17 12:18:16;;;;;;;12.57;10.88;;;;;;;;;;5030759;28;20026;-63
2023/04/17 12:20:41;;;;;;;15.50;13.07;;;;;;;;;;5015675;28;20480;-63
2023/04/17 12:23:06;;;;;;;14.20;12.73;;;;;;;;;;5015670;28;20029;-63
2023/04/17 12:25:33;;;;;;;13.23;10.55;;;;;;;;;;5015351;28;20026;-63
2023/04/17 12:27:59;;;;;;;15.57;13.05;;;;;;;;;;5015654;28;20026;-63
2023/04/17 12:30:27;;;;;;;22.17;16.05;;;;;;;;;;5015295;28;20026;-63
2023/04/17 12:32:54;;;;;;;17.77;14.75;;;;;;;;;;5015519;28;20026;-56
2023/04/17 12:35:20;;;;;;;16.63;13.63;;;;;;;;;;5015481;28;20380;-62
2023/04/17 12:37:50;;;;;;;17.13;13.48;;;;;;;;;;5015221;28;20033;-63
2023/04/17 12:40:19;;;;;;;16.80;12.98;;;;;;;;;;5049211;22;20092;-56
2023/04/17 12:42:45;;;;;;;19.13;14.40;;;;;;;;;;5011660;22;1119253;-56
2023/04/17 12:45:11;;;;;;;16.30;14.55;;;;;;;;;;5061296;22;20065;-62
2023/04/17 12:47:59;;;;;;;14.10;12.20;;;;;;;;;;5069428;22;20065;-63
2023/04/17 12:50:57;;;;;;;15.60;12.05;;;;;;;;;;5047317;23;20048;-62
2023/04/17 12:53:22;;;;;;;16.70;11.80;;;;;;;;;;5050869;23;20418;-55
2023/04/17 12:55:48;;;;;;;15.23;10.23;;;;;;;;;;5054795;28;20029;-56
2023/04/17 12:58:13;;;;;;;11.23;9.80;;;;;;;;;;5054447;28;20455;-56
2023/04/17 13:00:39;;;;;;;10.45;9.13;;;;;;;;;;5054355;28;20028;-56
2023/04/17 13:03:05;;;;;;;11.60;9.50;;;;;;;;;;5054923;28;20090;-56
2023/04/17 13:05:30;;;;;;;11.88;9.10;;;;;;;;;;5054587;28;20422;-55
2023/04/17 13:07:57;;;;;;;12.32;10.98;;;;;;;;;;5054851;28;20023;-55
2023/04/17 13:10:22;;;;;;;11.45;10.23;;;;;;;;;;5054496;28;20087;-55
2023/04/17 13:12:47;;;;;;;14.95;11.30;;;;;;;;;;5054307;28;20036;-56
2023/04/17 13:15:14;;;;;;;12.82;10.23;;;;;;;;;;5036339;28;20087;-56
2023/04/17 13:17:40;;;;;;;13.20;10.35;;;;;;;;;;5053802;28;20071;-56
2023/04/17 13:20:06;;;;;;;12.38;10.00;;;;;;;;;;5054157;28;20049;-55
2023/04/17 13:22:31;;;;;;;14.40;10.35;;;;;;;;;;5037056;28;20032;-56
2023/04/17 13:24:58;;;;;;;10.60;8.88;;;;;;;;;;5052017;28;20029;-56
2023/04/17 13:27:24;;;;;;;14.43;11.27;;;;;;;;;;5044889;28;20036;-56
2023/04/17 13:29:49;;;;;;;14.93;11.95;;;;;;;;;;5041685;28;20097;-56
2023/04/17 13:32:15;;;;;;;12.55;10.23;;;;;;;;;;5041022;28;20025;-55
2023/04/17 13:34:46;;;;;;;14.65;11.38;;;;;;;;;;5033289;28;20036;-56
2023/04/17 13:37:13;;;;;;;24.23;14.30;;;;;;;;;;5033570;28;20037;-56
2023/04/17 13:39:39;;;;;;;16.05;12.35;;;;;;;;;;5033612;28;20234;-56
2023/04/17 13:42:04;;;;;;;19.67;13.77;;;;;;;;;;5033457;28;20393;-56
2023/04/17 13:44:30;;;;;;;18.27;12.90;;;;;;;;;;5033582;28;20021;-56
2023/04/17 13:46:56;;;;;;;15.68;13.02;;;;;;;;;;5033384;28;20029;-56
2023/04/17 13:49:21;;;;;;;17.77;13.20;;;;;;;;;;5033577;28;20099;-56
2023/04/17 13:51:46;;;;;;;24.52;16.25;;;;;;;;;;5033560;28;20545;-56
2023/04/17 13:54:14;;;;;;;19.52;13.82;;;;;;;;;;5052983;28;20045;-56
2023/04/17 13:56:39;;;;;;;14.93;12.63;;;;;;;;;;5053765;28;20060;-56
2023/04/17 13:59:05;;;;;;;11.23;9.68;;;;;;;;;;5036057;28;20032;-56
2023/04/17 14:01:31;;;;;;;13.82;9.60;;;;;;;;;;5053443;28;20025;-56
2023/04/17 14:03:59;;;;;;;9.68;8.68;;;;;;;;;;5052970;28;20037;-56
2023/04/17 14:06:26;;;;;;;11.63;10.43;;;;;;;;;;5036297;28;20041;-56
2023/04/17 14:08:51;;;;;;;12.05;10.52;;;;;;;;;;5053700;28;20025;-56
2023/04/17 14:11:18;;;;;;;12.57;10.15;;;;;;;;;;5036201;28;20059;-56
2023/04/17 14:13:43;;;;;;;14.40;11.35;;;;;;;;;;5035839;28;20368;-56
2023/04/17 14:16:08;;;;;;;14.60;12.48;;;;;;;;;;5053770;28;20044;-56
2023/04/17 14:18:34;;;;;;;11.65;9.90;;;;;;;;;;5053355;28;20037;-56
2023/04/17 14:20:59;;;;;;;10.95;9.90;;;;;;;;;;5053579;28;20040;-56